Terminal Aerodrome Forecast
Issued by NWS

Home | Current Version | Previous Version | Text Only | Print | Product List | Glossary On
Versions: 1 2 3 4 5 6 7 8 9 10 11 12
986
FTUS45 KRIW 271730
TAFCOD
TAF
KCOD 271730Z 2718/2818 03008KT P6SM SKC
     FM272100 03010KT P6SM VCSH SCT080 BKN140
     FM280200 VRB10G20KT P6SM VCTS SCT080CB BKN120
     FM280800 28007KT P6SM VCSH FEW035 SCT080
     FM281600 02008KT P6SM FEW080 SCT110
      AMD LTD TO CLD VIS AND WIND=

USA.gov is the U.S. government's official web portal to all federal, state and local government web resources and services.